createdAt,value
2022-12-25T00:00:02.760Z,80
2022-12-25T00:02:33.335Z,80
2022-12-25T00:05:03.391Z,79
2022-12-25T00:07:33.680Z,79
2022-12-25T00:10:04.043Z,79
2022-12-25T00:12:34.224Z,78
2022-12-25T00:15:04.507Z,78
2022-12-25T00:17:34.903Z,78
2022-12-25T00:20:04.860Z,78
2022-12-25T00:22:35.332Z,79
2022-12-25T00:25:05.671Z,79
2022-12-25T00:27:35.958Z,79
2022-12-25T00:30:06.225Z,78
2022-12-25T00:32:36.675Z,78
2022-12-25T00:35:06.762Z,78
2022-12-25T00:37:37.065Z,78
2022-12-25T00:40:07.288Z,78
2022-12-25T00:42:37.642Z,78
2022-12-25T00:45:08.113Z,77
2022-12-25T00:47:38.154Z,77
2022-12-25T00:50:08.544Z,77
2022-12-25T00:52:38.972Z,78
2022-12-25T00:55:08.997Z,77
2022-12-25T00:57:39.158Z,77
2022-12-25T01:00:10.248Z,77
2022-12-25T01:02:40.533Z,77
2022-12-25T01:05:10.765Z,77
2022-12-25T01:07:40.902Z,78
2022-12-25T01:10:11.146Z,78
2022-12-25T01:12:41.482Z,78
2022-12-25T01:15:11.677Z,78
2022-12-25T01:17:42.024Z,79
2022-12-25T01:20:12.527Z,79
2022-12-25T01:22:43.330Z,79
2022-12-25T01:25:12.838Z,79
2022-12-25T01:27:43.240Z,79
2022-12-25T01:30:17.497Z,79
2022-12-25T01:32:47.927Z,79
2022-12-25T01:35:18.321Z,79
2022-12-25T01:37:48.715Z,79
2022-12-25T01:40:18.883Z,79
2022-12-25T01:42:48.825Z,79
2022-12-25T01:45:19.185Z,79
2022-12-25T01:47:49.619Z,79
2022-12-25T01:50:19.907Z,80
2022-12-25T01:52:50.214Z,80
2022-12-25T01:55:20.574Z,81
2022-12-25T01:57:50.998Z,81
2022-12-25T02:00:21.345Z,80
2022-12-25T02:02:51.887Z,79
2022-12-25T02:05:22.000Z,79
2022-12-25T02:07:52.405Z,79
2022-12-25T02:10:22.794Z,79
2022-12-25T02:12:53.115Z,78
2022-12-25T02:15:23.560Z,79
2022-12-25T02:17:53.545Z,80
2022-12-25T02:20:23.946Z,80
2022-12-25T02:22:54.219Z,80
2022-12-25T02:25:24.499Z,80
2022-12-25T02:27:54.800Z,81
2022-12-25T02:30:24.747Z,81
2022-12-25T02:32:54.921Z,81
2022-12-25T02:35:25.153Z,81
2022-12-25T02:37:55.379Z,81
2022-12-25T02:40:25.696Z,80
2022-12-25T02:42:55.973Z,80
2022-12-25T02:45:26.343Z,80
2022-12-25T02:47:56.541Z,80
2022-12-25T02:50:26.895Z,81
2022-12-25T02:52:57.326Z,80
2022-12-25T02:55:27.763Z,81
2022-12-25T02:57:58.053Z,81
2022-12-25T03:00:28.410Z,80
2022-12-25T03:02:58.801Z,80
2022-12-25T03:05:29.236Z,80
2022-12-25T03:07:59.574Z,79
2022-12-25T03:10:29.849Z,78
2022-12-25T03:13:00.093Z,78
2022-12-25T03:15:30.206Z,78
2022-12-25T03:18:00.456Z,78
2022-12-25T03:20:30.854Z,78
2022-12-25T03:23:01.270Z,79
2022-12-25T03:25:31.561Z,79
2022-12-25T03:28:01.807Z,79
2022-12-25T03:30:32.291Z,79
2022-12-25T03:33:13.521Z,79
2022-12-25T03:35:32.878Z,79
2022-12-25T03:38:03.138Z,80
2022-12-25T03:40:33.201Z,80
2022-12-25T03:43:03.423Z,80
2022-12-25T03:45:33.867Z,81
2022-12-25T03:48:04.143Z,80
2022-12-25T03:50:34.249Z,80
2022-12-25T03:53:04.566Z,80
2022-12-25T03:55:34.718Z,80
2022-12-25T03:58:04.950Z,80
2022-12-25T04:00:35.200Z,80
2022-12-25T04:03:05.559Z,81
2022-12-25T04:05:35.717Z,81
2022-12-25T04:08:05.931Z,81
2022-12-25T04:10:36.187Z,81
2022-12-25T04:13:06.510Z,80
2022-12-25T04:15:36.806Z,80
2022-12-25T04:18:07.055Z,81
2022-12-25T04:20:37.390Z,80
2022-12-25T04:23:07.690Z,79
2022-12-25T04:25:38.012Z,79
2022-12-25T04:28:08.360Z,79
2022-12-25T04:30:38.522Z,78
2022-12-25T04:33:08.777Z,78
2022-12-25T04:35:39.190Z,78
2022-12-25T04:38:09.457Z,78
2022-12-25T04:40:39.845Z,78
2022-12-25T04:43:10.153Z,79
2022-12-25T04:45:40.568Z,80
2022-12-25T04:48:11.001Z,80
2022-12-25T04:50:41.363Z,79
2022-12-25T04:53:11.696Z,79
2022-12-25T04:55:42.008Z,79
2022-12-25T04:58:12.190Z,78
2022-12-25T05:00:42.433Z,78
2022-12-25T05:03:13.048Z,79
2022-12-25T05:05:43.202Z,79
2022-12-25T05:08:13.813Z,79
2022-12-25T05:10:44.266Z,79
2022-12-25T05:13:14.607Z,80
2022-12-25T05:15:45.046Z,80
2022-12-25T05:18:15.396Z,79
2022-12-25T05:20:45.721Z,79
2022-12-25T05:23:15.952Z,79
2022-12-25T05:25:46.220Z,80
2022-12-25T05:28:16.508Z,80
2022-12-25T05:30:46.961Z,80
2022-12-25T05:33:17.183Z,80
2022-12-25T05:35:47.607Z,79
2022-12-25T05:38:17.833Z,79
2022-12-25T05:40:48.317Z,79
2022-12-25T05:43:18.653Z,80
2022-12-25T05:45:49.070Z,80
2022-12-25T05:48:19.438Z,80
2022-12-25T05:50:49.866Z,81
2022-12-25T05:53:20.205Z,82
2022-12-25T05:55:50.731Z,81
2022-12-25T05:58:20.893Z,81
2022-12-25T06:00:51.088Z,81
2022-12-25T06:03:21.648Z,80
2022-12-25T06:05:51.759Z,80
2022-12-25T06:08:22.235Z,80
2022-12-25T06:10:52.550Z,80
2022-12-25T06:13:22.889Z,81
2022-12-25T06:15:53.283Z,81
2022-12-25T06:18:23.581Z,81
2022-12-25T06:20:54.052Z,81
2022-12-25T06:23:24.527Z,81
2022-12-25T06:25:54.847Z,81
2022-12-25T06:28:25.167Z,81
2022-12-25T06:30:55.527Z,80
2022-12-25T06:33:25.799Z,81
2022-12-25T06:35:56.224Z,81
2022-12-25T06:38:26.454Z,81
2022-12-25T06:40:56.942Z,81
2022-12-25T06:43:27.307Z,81
2022-12-25T06:45:57.745Z,81
2022-12-25T06:48:28.065Z,81
2022-12-25T06:50:58.422Z,81
2022-12-25T06:53:32.262Z,82
2022-12-25T06:55:59.581Z,82
2022-12-25T06:58:29.900Z,83
2022-12-25T07:01:00.173Z,83
2022-12-25T07:03:30.599Z,83
2022-12-25T07:06:00.948Z,83
2022-12-25T07:08:31.302Z,83
2022-12-25T07:11:01.659Z,83
2022-12-25T07:13:32.049Z,83
2022-12-25T07:16:02.481Z,83
2022-12-25T07:18:32.797Z,83
2022-12-25T07:21:03.211Z,83
2022-12-25T07:23:36.436Z,83
2022-12-25T07:26:05.719Z,83
2022-12-25T07:28:43.043Z,83
2022-12-25T07:31:13.262Z,83
2022-12-25T07:33:43.334Z,83
2022-12-25T07:36:13.539Z,83
2022-12-25T07:38:43.980Z,82
2022-12-25T07:41:14.075Z,82
2022-12-25T07:43:44.698Z,82
2022-12-25T07:46:15.306Z,82
2022-12-25T07:48:45.457Z,82
2022-12-25T07:51:15.827Z,82
2022-12-25T07:53:45.925Z,82
2022-12-25T07:56:16.115Z,82
2022-12-25T07:58:46.385Z,82
2022-12-25T08:01:16.718Z,82
2022-12-25T08:03:47.493Z,82
2022-12-25T08:06:17.472Z,81
2022-12-25T08:08:47.582Z,81
2022-12-25T08:11:17.918Z,81
2022-12-25T08:13:48.181Z,81
2022-12-25T08:16:18.495Z,82
2022-12-25T08:18:48.831Z,82
2022-12-25T08:21:19.546Z,81
2022-12-25T08:23:50.488Z,81
2022-12-25T08:26:20.820Z,81
2022-12-25T08:28:50.927Z,81
2022-12-25T08:31:21.508Z,81
2022-12-25T08:33:51.740Z,81
2022-12-25T08:36:22.784Z,81
2022-12-25T08:38:55.611Z,82
2022-12-25T08:41:24.332Z,82
2022-12-25T08:43:53.644Z,82
2022-12-25T08:46:24.006Z,82
2022-12-25T08:48:54.922Z,82
2022-12-25T08:51:25.265Z,82
2022-12-25T08:53:56.294Z,82
2022-12-25T08:56:26.511Z,81
2022-12-25T08:58:56.854Z,81
2022-12-25T09:01:27.314Z,81
2022-12-25T09:03:58.076Z,81
2022-12-25T09:06:28.871Z,81
2022-12-25T09:08:59.112Z,81
2022-12-25T09:11:29.470Z,81
2022-12-25T09:13:59.539Z,81
2022-12-25T09:16:29.844Z,81
2022-12-25T09:19:00.187Z,81
2022-12-25T09:21:30.608Z,81
2022-12-25T09:24:01.499Z,81
2022-12-25T09:26:31.843Z,81
2022-12-25T09:29:02.781Z,82
2022-12-25T09:31:33.141Z,81
2022-12-25T09:34:03.876Z,81
2022-12-25T09:36:34.007Z,81
2022-12-25T09:41:34.649Z,81
2022-12-25T09:44:04.964Z,80
2022-12-25T09:46:37.343Z,81
2022-12-25T09:49:06.079Z,80
2022-12-25T09:51:35.956Z,81
2022-12-25T09:54:06.224Z,80
2022-12-25T09:56:39.180Z,80
2022-12-25T09:59:09.588Z,80
2022-12-25T10:01:40.619Z,80
2022-12-25T10:04:10.750Z,79
2022-12-25T10:06:41.078Z,80
2022-12-25T10:09:11.515Z,80
2022-12-25T10:11:41.833Z,79
2022-12-25T10:14:12.392Z,79
2022-12-25T10:16:42.560Z,79
2022-12-25T10:19:12.659Z,78
2022-12-25T10:21:42.962Z,78
2022-12-25T10:24:14.046Z,78
2022-12-25T10:26:44.400Z,78
2022-12-25T10:29:14.942Z,78
2022-12-25T10:31:44.700Z,78
2022-12-25T10:34:15.759Z,78
2022-12-25T10:36:46.384Z,78
2022-12-25T10:39:22.271Z,77
2022-12-25T10:41:52.636Z,76
2022-12-25T10:44:22.970Z,73
2022-12-25T10:46:53.105Z,70
2022-12-25T10:49:23.308Z,69
2022-12-25T10:51:53.772Z,69
2022-12-25T10:54:23.681Z,69
2022-12-25T10:56:53.716Z,68
2022-12-25T10:59:24.564Z,67
2022-12-25T11:01:55.719Z,67
2022-12-25T11:04:26.097Z,64
2022-12-25T11:06:56.503Z,65
2022-12-25T11:09:27.658Z,66
2022-12-25T11:11:57.844Z,66
2022-12-25T11:14:29.053Z,65
2022-12-25T11:16:58.712Z,63
2022-12-25T11:19:29.173Z,62
2022-12-25T11:21:59.461Z,63
2022-12-25T11:24:30.231Z,64
2022-12-25T11:27:02.222Z,63
2022-12-25T11:29:32.028Z,64
2022-12-25T11:32:03.111Z,63
2022-12-25T11:34:33.356Z,62
2022-12-25T11:37:04.514Z,64
2022-12-25T11:39:35.120Z,62
2022-12-25T11:44:35.568Z,62
2022-12-25T11:47:05.374Z,62
2022-12-25T11:49:35.572Z,60
2022-12-25T11:52:06.041Z,61
2022-12-25T11:54:36.020Z,59
2022-12-25T11:57:06.399Z,58
2022-12-25T11:59:36.796Z,60
2022-12-25T12:02:07.736Z,61
2022-12-25T12:04:42.512Z,61
2022-12-25T12:07:08.181Z,61
2022-12-25T12:09:38.672Z,60
2022-12-25T12:12:08.983Z,60
2022-12-25T12:14:39.451Z,59
2022-12-25T12:17:09.936Z,59
2022-12-25T12:19:40.989Z,59
2022-12-25T12:22:11.472Z,59
2022-12-25T12:24:41.561Z,59
2022-12-25T12:27:12.100Z,59
2022-12-25T12:29:42.542Z,60
2022-12-25T12:32:12.960Z,59
2022-12-25T12:34:43.998Z,58
2022-12-25T12:37:17.310Z,57
2022-12-25T12:39:45.490Z,58
2022-12-25T12:42:15.855Z,55
2022-12-25T12:44:46.933Z,57
2022-12-25T12:47:19.161Z,53
2022-12-25T12:49:49.425Z,53
2022-12-25T12:52:19.596Z,55
2022-12-25T12:54:50.626Z,55
2022-12-25T12:57:21.839Z,56
2022-12-25T12:59:52.083Z,56
2022-12-25T13:02:22.636Z,57
2022-12-25T13:04:53.014Z,57
2022-12-25T13:07:23.302Z,57
2022-12-25T13:09:53.628Z,57
2022-12-25T13:12:24.573Z,58
2022-12-25T13:14:54.930Z,58
2022-12-25T13:20:03.658Z,58
2022-12-25T13:22:34.067Z,58
2022-12-25T13:25:04.964Z,58
2022-12-25T13:27:35.935Z,58
2022-12-25T13:30:06.010Z,59
2022-12-25T13:32:36.284Z,59
2022-12-25T13:35:07.181Z,59
2022-12-25T13:37:37.195Z,59
2022-12-25T13:40:08.051Z,59
2022-12-25T13:42:38.160Z,58
2022-12-25T13:45:09.323Z,58
2022-12-25T13:47:39.381Z,57
2022-12-25T13:50:10.428Z,57
2022-12-25T13:52:45.804Z,59
2022-12-25T13:55:17.328Z,59
2022-12-25T13:57:47.691Z,59
2022-12-25T14:00:18.137Z,59
2022-12-25T14:02:48.720Z,59
2022-12-25T14:05:18.590Z,60
2022-12-25T14:07:50.234Z,59
2022-12-25T14:10:20.720Z,61
2022-12-25T14:12:50.916Z,60
2022-12-25T14:15:21.263Z,60
2022-12-25T14:17:51.503Z,60
2022-12-25T14:20:22.609Z,61
2022-12-25T14:22:52.904Z,61
2022-12-25T14:25:23.939Z,61
2022-12-25T14:27:54.231Z,60
2022-12-25T14:30:24.614Z,61
2022-12-25T14:32:54.970Z,61
2022-12-25T14:35:25.836Z,61
2022-12-25T14:37:55.565Z,62
2022-12-25T14:40:25.925Z,62
2022-12-25T14:42:56.056Z,62
2022-12-25T14:45:26.286Z,62
2022-12-25T14:47:56.680Z,63
2022-12-25T14:50:27.162Z,62
2022-12-25T14:52:57.499Z,63
2022-12-25T14:55:28.445Z,63
2022-12-25T14:57:58.867Z,63
2022-12-25T15:00:29.248Z,64
2022-12-25T15:02:59.675Z,63
2022-12-25T15:05:30.143Z,63
2022-12-25T15:08:00.475Z,63
2022-12-25T15:13:01.297Z,63
2022-12-25T15:15:31.574Z,63
2022-12-25T15:18:02.025Z,64
2022-12-25T15:20:33.030Z,64
2022-12-25T15:23:19.174Z,64
2022-12-25T15:25:37.642Z,65
2022-12-25T15:28:12.605Z,65
2022-12-25T15:30:38.500Z,65
2022-12-25T15:33:09.159Z,66
2022-12-25T15:35:40.905Z,66
2022-12-25T15:38:10.855Z,66
2022-12-25T15:40:41.887Z,66
2022-12-25T15:43:31.178Z,66
2022-12-25T15:45:43.237Z,66
2022-12-25T15:48:13.633Z,66
2022-12-25T15:50:45.432Z,66
2022-12-25T15:53:15.803Z,67
2022-12-25T15:55:46.272Z,66
2022-12-25T15:58:16.444Z,66
2022-12-25T16:00:46.913Z,67
2022-12-25T16:03:20.797Z,67
2022-12-25T16:05:51.239Z,67
2022-12-25T16:08:22.061Z,67
2022-12-25T16:10:52.380Z,68
2022-12-25T16:13:23.169Z,68
2022-12-25T16:15:53.264Z,68
2022-12-25T16:18:24.266Z,69
2022-12-25T16:20:53.951Z,69
2022-12-25T16:23:24.925Z,69
2022-12-25T16:25:55.085Z,69
2022-12-25T16:28:26.514Z,69
2022-12-25T16:30:57.510Z,69
2022-12-25T16:33:27.659Z,70
2022-12-25T16:35:58.073Z,70
2022-12-25T16:38:28.457Z,70
2022-12-25T16:40:58.717Z,70
2022-12-25T16:43:28.924Z,70
2022-12-25T16:45:59.227Z,71
2022-12-25T16:48:29.311Z,71
2022-12-25T16:50:59.844Z,71
2022-12-25T16:53:30.349Z,71
2022-12-25T16:56:01.195Z,71
2022-12-25T16:58:35.103Z,71
2022-12-25T17:01:05.031Z,72
2022-12-25T17:03:35.335Z,72
2022-12-25T17:06:05.235Z,72
2022-12-25T17:08:35.422Z,72
2022-12-25T17:11:05.552Z,72
2022-12-25T17:13:36.217Z,72
2022-12-25T17:16:06.558Z,72
2022-12-25T17:18:36.854Z,72
2022-12-25T17:21:07.182Z,72
2022-12-25T17:23:37.611Z,72
2022-12-25T17:26:08.628Z,72
2022-12-25T17:28:38.870Z,72
2022-12-25T17:31:09.284Z,73
2022-12-25T17:33:39.776Z,73
2022-12-25T17:36:10.746Z,73
2022-12-25T17:38:40.813Z,73
2022-12-25T17:41:11.124Z,73
2022-12-25T17:43:42.201Z,73
2022-12-25T17:46:12.465Z,73
2022-12-25T17:48:42.967Z,73
2022-12-25T17:51:13.180Z,73
2022-12-25T17:53:44.279Z,74
2022-12-25T17:56:14.999Z,74
2022-12-25T17:58:45.456Z,73
2022-12-25T18:01:16.571Z,73
2022-12-25T18:03:47.128Z,73
2022-12-25T18:06:18.002Z,74
2022-12-25T18:08:48.459Z,73
2022-12-25T18:11:18.697Z,73
2022-12-25T18:13:49.118Z,73
2022-12-25T18:16:19.390Z,73
2022-12-25T18:18:52.421Z,73
2022-12-25T18:21:21.561Z,74
2022-12-25T18:23:51.782Z,73
2022-12-25T18:26:22.974Z,73
2022-12-25T18:28:52.980Z,73
2022-12-25T18:31:23.376Z,73
2022-12-25T18:33:53.655Z,73
2022-12-25T18:36:24.225Z,73
2022-12-25T18:38:54.578Z,73
2022-12-25T18:41:24.949Z,73
2022-12-25T18:43:55.970Z,73
2022-12-25T18:46:26.159Z,73
2022-12-25T18:48:55.958Z,73
2022-12-25T18:51:31.272Z,73
2022-12-25T18:53:56.738Z,73
2022-12-25T18:56:27.891Z,73
2022-12-25T18:58:58.683Z,73
2022-12-25T19:01:29.735Z,73
2022-12-25T19:04:04.939Z,73
2022-12-25T19:06:30.466Z,73
2022-12-25T19:09:00.863Z,73
2022-12-25T19:11:31.289Z,73
2022-12-25T19:14:01.709Z,73
2022-12-25T19:16:33.087Z,73
2022-12-25T19:19:03.868Z,73
2022-12-25T19:21:34.204Z,73
2022-12-25T19:24:05.150Z,73
2022-12-25T19:26:35.428Z,72
2022-12-25T19:29:06.046Z,72
2022-12-25T19:31:36.780Z,72
2022-12-25T19:34:06.885Z,72
2022-12-25T19:36:37.677Z,72
2022-12-25T19:39:08.765Z,72
2022-12-25T19:41:38.858Z,72
2022-12-25T19:44:09.829Z,72
2022-12-25T19:46:39.001Z,72
2022-12-25T19:49:09.800Z,72
2022-12-25T19:51:39.995Z,72
2022-12-25T19:54:10.920Z,72
2022-12-25T19:56:41.219Z,72
2022-12-25T19:59:11.928Z,72
2022-12-25T20:01:42.476Z,72
2022-12-25T20:04:12.930Z,72
2022-12-25T20:06:43.281Z,72
2022-12-25T20:09:14.292Z,72
2022-12-25T20:11:44.724Z,71
2022-12-25T20:14:16.125Z,71
2022-12-25T20:16:47.235Z,71
2022-12-25T20:19:17.881Z,71
2022-12-25T20:21:48.183Z,71
2022-12-25T20:24:18.229Z,71
2022-12-25T20:26:51.462Z,71
2022-12-25T20:29:19.809Z,71
2022-12-25T20:31:50.046Z,71
2022-12-25T20:34:20.271Z,71
2022-12-25T20:36:50.598Z,71
2022-12-25T20:39:20.930Z,71
2022-12-25T20:41:51.806Z,71
2022-12-25T20:44:22.208Z,71
2022-12-25T20:46:52.407Z,71
2022-12-25T20:49:22.938Z,71
2022-12-25T20:51:53.051Z,71
2022-12-25T20:54:24.003Z,71
2022-12-25T20:56:54.995Z,71
2022-12-25T20:59:27.879Z,71
2022-12-25T21:01:57.102Z,71
2022-12-25T21:04:27.219Z,71
2022-12-25T21:06:57.707Z,70
2022-12-25T21:09:27.981Z,70
2022-12-25T21:11:59.069Z,70
2022-12-25T21:14:29.495Z,70
2022-12-25T21:16:59.889Z,70
2022-12-25T21:19:30.951Z,70
2022-12-25T21:22:01.895Z,70
2022-12-25T21:24:32.373Z,71
2022-12-25T21:27:03.371Z,71
2022-12-25T21:29:33.731Z,71
2022-12-25T21:32:05.540Z,70
2022-12-25T21:34:35.853Z,71
2022-12-25T21:37:06.934Z,70
2022-12-25T21:39:37.107Z,71
2022-12-25T21:42:07.600Z,71
2022-12-25T21:44:38.023Z,71
2022-12-25T21:47:08.351Z,71
2022-12-25T21:49:39.292Z,71
2022-12-25T21:52:10.460Z,71
2022-12-25T21:54:40.774Z,71
2022-12-25T21:57:11.941Z,71
2022-12-25T21:59:42.219Z,71
2022-12-25T22:02:12.775Z,70
2022-12-25T22:04:42.921Z,70
2022-12-25T22:07:13.443Z,70
2022-12-25T22:09:44.013Z,70
2022-12-25T22:12:14.325Z,70
2022-12-25T22:14:50.838Z,70
2022-12-25T22:17:15.933Z,70
2022-12-25T22:19:46.201Z,70
2022-12-25T22:22:17.097Z,70
2022-12-25T22:24:47.266Z,70
2022-12-25T22:27:18.199Z,70
2022-12-25T22:29:48.631Z,69
2022-12-25T22:32:19.516Z,69
2022-12-25T22:34:49.976Z,69
2022-12-25T22:37:21.185Z,70
2022-12-25T22:39:51.994Z,70
2022-12-25T22:42:22.290Z,70
2022-12-25T22:44:55.412Z,70
2022-12-25T22:47:25.064Z,69
2022-12-25T22:49:59.068Z,70
2022-12-25T22:52:29.233Z,70
2022-12-25T22:55:00.301Z,70
2022-12-25T22:57:30.404Z,69
2022-12-25T23:00:01.605Z,70
2022-12-25T23:02:32.077Z,70
2022-12-25T23:05:02.863Z,70
2022-12-25T23:07:33.225Z,70
2022-12-25T23:10:03.789Z,70
2022-12-25T23:12:34.165Z,70
2022-12-25T23:15:05.501Z,70
2022-12-25T23:17:34.524Z,70
2022-12-25T23:20:04.903Z,70
2022-12-25T23:22:35.706Z,70
2022-12-25T23:25:05.869Z,70
2022-12-25T23:27:36.084Z,70
2022-12-25T23:30:06.888Z,70
2022-12-25T23:32:36.936Z,70
2022-12-25T23:35:07.297Z,70
2022-12-25T23:37:37.370Z,71
2022-12-25T23:40:07.695Z,71
2022-12-25T23:42:37.997Z,71
2022-12-25T23:45:08.230Z,71
2022-12-25T23:47:38.099Z,71
2022-12-25T23:50:08.496Z,71
2022-12-25T23:52:38.590Z,71
2022-12-25T23:55:08.763Z,71
2022-12-25T23:57:39.224Z,71
